Time;durP1;ratioP1;P1;durP2;ratioP2;P2;SDS_P1;SDS_P2;PMS_P1;PMS_P2;Temp;Humidity;BMP_temperature;BMP_pressure;BME280_temperature;BME280_humidity;BME280_pressure;Samples;Min_cycle;Max_cycle;Signal;HPM_P1;HPM_P2
2020/12/22 00:00:31;;;;;;;13.07;11.27;;;;;;;;;;5014388;28;20192;-73
2020/12/22 00:02:56;;;;;;;14.43;11.85;;;;;;;;;;5018431;28;20186;-71
2020/12/22 00:05:22;;;;;;;13.93;11.02;;;;;;;;;;5013787;28;20271;-71
2020/12/22 00:07:47;;;;;;;14.90;11.85;;;;;;;;;;5033274;28;20699;-72
2020/12/22 00:10:13;;;;;;;13.43;11.30;;;;;;;;;;5019035;28;20189;-71
2020/12/22 00:12:38;;;;;;;16.52;11.48;;;;;;;;;;5030732;28;20186;-71
2020/12/22 00:15:06;;;;;;;12.13;10.52;;;;;;;;;;5025633;28;20194;-71
2020/12/22 00:17:31;;;;;;;12.60;10.57;;;;;;;;;;5023608;28;20190;-72
2020/12/22 00:19:56;;;;;;;11.30;9.57;;;;;;;;;;5026552;28;20194;-71
2020/12/22 00:22:22;;;;;;;12.50;10.38;;;;;;;;;;5021746;28;20190;-71
2020/12/22 00:24:47;;;;;;;11.95;10.43;;;;;;;;;;5026897;28;20649;-71
2020/12/22 00:27:12;;;;;;;12.15;9.50;;;;;;;;;;5023180;28;20284;-72
2020/12/22 00:29:38;;;;;;;10.90;9.27;;;;;;;;;;5025650;28;20237;-71
2020/12/22 00:32:03;;;;;;;12.18;9.77;;;;;;;;;;5019729;28;20186;-71
2020/12/22 00:34:32;;;;;;;11.50;9.57;;;;;;;;;;5027236;28;20359;-71
2020/12/22 00:36:59;;;;;;;10.35;8.68;;;;;;;;;;5012064;28;20189;-71
2020/12/22 00:39:25;;;;;;;12.23;9.27;;;;;;;;;;5027028;28;20878;-71
2020/12/22 00:41:52;;;;;;;12.00;9.55;;;;;;;;;;5029158;28;20178;-71
2020/12/22 00:44:18;;;;;;;13.45;9.93;;;;;;;;;;5019676;28;20228;-71
2020/12/22 00:46:43;;;;;;;12.35;10.15;;;;;;;;;;5032020;28;20534;-71
2020/12/22 00:49:09;;;;;;;10.98;9.13;;;;;;;;;;5014900;28;20580;-71
2020/12/22 00:51:34;;;;;;;10.40;9.30;;;;;;;;;;5031730;28;20174;-71
2020/12/22 00:53:59;;;;;;;11.50;9.63;;;;;;;;;;5018077;28;20293;-71
2020/12/22 00:56:25;;;;;;;11.95;10.30;;;;;;;;;;5030281;28;20252;-71
2020/12/22 00:58:50;;;;;;;11.63;10.40;;;;;;;;;;5019593;28;20194;-71
2020/12/22 01:01:15;;;;;;;12.90;10.98;;;;;;;;;;5031641;28;20641;-71
2020/12/22 01:03:41;;;;;;;10.80;9.30;;;;;;;;;;5015530;28;20186;-71
2020/12/22 01:06:06;;;;;;;10.13;9.13;;;;;;;;;;5023084;28;20182;-71
2020/12/22 01:08:31;;;;;;;10.65;9.32;;;;;;;;;;5015008;28;20606;-71
2020/12/22 01:10:56;;;;;;;10.52;9.13;;;;;;;;;;5027879;28;20182;-71
2020/12/22 01:13:22;;;;;;;11.50;9.15;;;;;;;;;;5016103;28;20203;-71
2020/12/22 01:15:47;;;;;;;10.93;8.90;;;;;;;;;;5021515;28;20560;-72
2020/12/22 01:18:13;;;;;;;11.70;9.95;;;;;;;;;;5023655;28;20221;-72
2020/12/22 01:20:39;;;;;;;11.82;10.45;;;;;;;;;;5014179;28;20270;-72
2020/12/22 01:23:04;;;;;;;11.57;10.18;;;;;;;;;;5023103;28;20281;-72
2020/12/22 01:25:29;;;;;;;10.77;9.45;;;;;;;;;;5017206;28;20553;-73
2020/12/22 01:27:55;;;;;;;12.45;9.45;;;;;;;;;;5023888;28;20726;-71
2020/12/22 01:30:20;;;;;;;11.38;10.18;;;;;;;;;;5013206;28;20552;-72
2020/12/22 01:32:46;;;;;;;11.52;10.32;;;;;;;;;;5023021;28;20668;-72
2020/12/22 01:35:12;;;;;;;10.30;9.20;;;;;;;;;;5016245;28;20615;-72
2020/12/22 01:37:37;;;;;;;12.65;10.82;;;;;;;;;;5023923;28;20194;-72
2020/12/22 01:40:03;;;;;;;11.02;9.80;;;;;;;;;;5018499;28;22489;-73
2020/12/22 01:42:28;;;;;;;11.68;9.70;;;;;;;;;;5024709;28;20190;-73
2020/12/22 01:44:54;;;;;;;11.10;9.93;;;;;;;;;;5018136;28;20214;-72
2020/12/22 01:47:21;;;;;;;11.77;10.32;;;;;;;;;;5020529;28;20336;-72
2020/12/22 01:49:46;;;;;;;11.07;9.55;;;;;;;;;;5025497;28;20178;-73
2020/12/22 01:52:11;;;;;;;11.27;10.07;;;;;;;;;;5016726;28;20194;-74
2020/12/22 01:54:37;;;;;;;11.18;10.00;;;;;;;;;;5026910;28;20603;-74
2020/12/22 01:57:10;;;;;;;11.77;10.48;;;;;;;;;;5015015;28;20188;-73
2020/12/22 01:59:35;;;;;;;11.90;10.38;;;;;;;;;;5018304;28;20204;-73
2020/12/22 02:02:01;;;;;;;11.77;10.52;;;;;;;;;;5014726;28;20664;-73
2020/12/22 02:04:27;;;;;;;11.90;10.57;;;;;;;;;;5019140;28;20194;-74
2020/12/22 02:06:52;;;;;;;11.23;10.00;;;;;;;;;;5015889;28;20206;-73
2020/12/22 02:09:18;;;;;;;11.80;9.95;;;;;;;;;;5026660;28;20202;-73
2020/12/22 02:11:43;;;;;;;10.68;9.52;;;;;;;;;;5016175;28;20253;-73
2020/12/22 02:14:10;;;;;;;11.25;9.50;;;;;;;;;;5026611;28;20230;-73
2020/12/22 02:16:36;;;;;;;9.70;8.48;;;;;;;;;;5014624;28;20204;-73
2020/12/22 02:19:02;;;;;;;9.82;8.40;;;;;;;;;;5020436;28;20190;-73
2020/12/22 02:21:27;;;;;;;9.18;7.75;;;;;;;;;;5024977;28;20197;-74
2020/12/22 02:23:53;;;;;;;9.90;7.40;;;;;;;;;;5016841;28;20225;-74
2020/12/22 02:26:23;;;;;;;9.02;7.15;;;;;;;;;;5024106;28;20580;-76
2020/12/22 02:28:49;;;;;;;7.78;6.97;;;;;;;;;;5010090;28;20198;-76
2020/12/22 02:31:15;;;;;;;7.85;6.80;;;;;;;;;;5025716;28;20209;-73
2020/12/22 02:33:40;;;;;;;7.63;6.10;;;;;;;;;;5009692;28;20198;-74
2020/12/22 02:36:10;;;;;;;6.78;6.07;;;;;;;;;;5019551;28;20223;-73
2020/12/22 02:38:35;;;;;;;6.68;5.95;;;;;;;;;;5008129;28;20193;-74
2020/12/22 02:41:01;;;;;;;6.88;5.63;;;;;;;;;;5022857;28;20666;-74
2020/12/22 02:43:26;;;;;;;6.57;5.22;;;;;;;;;;5013978;28;20190;-77
2020/12/22 02:45:52;;;;;;;5.80;4.60;;;;;;;;;;5022947;28;20190;-74
2020/12/22 02:48:17;;;;;;;5.07;4.43;;;;;;;;;;5018143;28;20198;-73
2020/12/22 02:50:42;;;;;;;4.25;3.28;;;;;;;;;;5019102;28;20186;-71
2020/12/22 02:53:08;;;;;;;5.90;3.78;;;;;;;;;;5017589;28;20726;-74
2020/12/22 02:55:33;;;;;;;3.85;3.45;;;;;;;;;;5015349;28;20202;-72
2020/12/22 02:57:59;;;;;;;3.53;3.22;;;;;;;;;;5024092;28;20179;-74
2020/12/22 03:00:25;;;;;;;3.70;3.30;;;;;;;;;;5012655;28;20194;-74
2020/12/22 03:02:50;;;;;;;3.75;2.85;;;;;;;;;;5017599;28;20284;-73
2020/12/22 03:05:16;;;;;;;2.83;2.53;;;;;;;;;;5010263;28;20548;-72
2020/12/22 03:07:42;;;;;;;3.22;2.85;;;;;;;;;;5026069;28;20311;-72
2020/12/22 03:10:08;;;;;;;3.13;2.83;;;;;;;;;;5015443;28;20576;-74
2020/12/22 03:12:34;;;;;;;2.63;2.40;;;;;;;;;;5025509;28;20567;-72
2020/12/22 03:15:00;;;;;;;2.55;2.35;;;;;;;;;;5013657;28;20316;-72
2020/12/22 03:17:25;;;;;;;2.70;2.10;;;;;;;;;;5027449;28;20666;-73
2020/12/22 03:19:50;;;;;;;2.20;2.00;;;;;;;;;;5012971;28;20198;-74
2020/12/22 03:22:16;;;;;;;2.55;2.35;;;;;;;;;;5024172;28;20636;-75
2020/12/22 03:24:41;;;;;;;2.42;2.22;;;;;;;;;;5019201;28;20325;-72
2020/12/22 03:27:06;;;;;;;2.47;2.28;;;;;;;;;;5012443;28;20179;-71
2020/12/22 03:29:32;;;;;;;2.40;2.20;;;;;;;;;;5023986;28;20547;-72
2020/12/22 03:31:57;;;;;;;3.25;2.15;;;;;;;;;;5014326;28;20320;-72
2020/12/22 03:34:22;;;;;;;2.20;2.00;;;;;;;;;;5023603;28;20693;-72
2020/12/22 03:36:51;;;;;;;2.00;1.90;;;;;;;;;;5016240;28;20190;-71
2020/12/22 03:39:16;;;;;;;1.80;1.70;;;;;;;;;;5024924;28;20178;-72
2020/12/22 03:41:41;;;;;;;2.25;1.55;;;;;;;;;;5011623;28;20202;-74
2020/12/22 03:44:07;;;;;;;1.33;1.23;;;;;;;;;;5027110;28;20189;-72
2020/12/22 03:46:32;;;;;;;1.35;1.25;;;;;;;;;;5016100;28;20194;-72
2020/12/22 03:48:58;;;;;;;1.15;1.05;;;;;;;;;;5026623;28;20178;-72
2020/12/22 03:51:23;;;;;;;1.40;1.17;;;;;;;;;;5011145;28;20653;-72
2020/12/22 03:53:48;;;;;;;1.35;1.25;;;;;;;;;;5027102;28;20224;-71
2020/12/22 03:56:14;;;;;;;1.02;0.85;;;;;;;;;;5022650;28;20214;-72
2020/12/22 03:58:39;;;;;;;2.13;1.00;;;;;;;;;;5021401;28;20598;-72
2020/12/22 04:01:04;;;;;;;1.55;1.10;;;;;;;;;;5025182;28;20187;-72
2020/12/22 04:03:30;;;;;;;1.23;0.68;;;;;;;;;;5019890;28;20653;-71
2020/12/22 04:05:55;;;;;;;0.60;0.60;;;;;;;;;;5025480;28;20259;-72
2020/12/22 04:08:20;;;;;;;0.73;0.73;;;;;;;;;;5017268;28;20186;-71
2020/12/22 04:10:46;;;;;;;0.60;0.60;;;;;;;;;;5025915;28;20230;-71
2020/12/22 04:13:11;;;;;;;0.90;0.90;;;;;;;;;;5016477;28;20210;-71
2020/12/22 04:15:36;;;;;;;0.70;0.68;;;;;;;;;;5022639;28;20261;-71
2020/12/22 04:18:02;;;;;;;0.68;0.68;;;;;;;;;;5019050;28;20645;-72
2020/12/22 04:20:28;;;;;;;1.88;0.73;;;;;;;;;;5026309;28;20190;-71
2020/12/22 04:22:53;;;;;;;1.73;0.80;;;;;;;;;;5025458;28;20717;-71
2020/12/22 04:25:18;;;;;;;1.55;1.10;;;;;;;;;;5021186;28;20174;-73
2020/12/22 04:27:44;;;;;;;1.30;1.20;;;;;;;;;;5028158;28;20174;-71
2020/12/22 04:30:09;;;;;;;5.10;1.00;;;;;;;;;;5018053;28;20193;-71
2020/12/22 04:32:34;;;;;;;1.08;0.98;;;;;;;;;;5023706;28;20205;-71
2020/12/22 04:35:00;;;;;;;2.78;1.00;;;;;;;;;;5019574;28;20237;-71
2020/12/22 04:37:25;;;;;;;1.55;1.13;;;;;;;;;;5025454;28;20240;-71
2020/12/22 04:39:51;;;;;;;1.48;1.20;;;;;;;;;;5020491;28;20543;-72
2020/12/22 04:42:20;;;;;;;1.98;1.30;;;;;;;;;;5023167;28;20197;-72
2020/12/22 04:44:45;;;;;;;2.63;1.63;;;;;;;;;;5020317;28;20567;-72
2020/12/22 04:47:12;;;;;;;1.95;1.83;;;;;;;;;;5025955;28;20196;-71
2020/12/22 04:49:42;;;;;;;4.00;2.70;;;;;;;;;;5019031;28;20638;-72
2020/12/22 04:52:08;;;;;;;4.45;3.40;;;;;;;;;;5023887;28;20273;-72
2020/12/22 04:54:34;;;;;;;5.25;3.47;;;;;;;;;;5018887;28;20202;-72
2020/12/22 04:57:02;;;;;;;5.68;3.20;;;;;;;;;;5024144;28;20553;-72
2020/12/22 04:59:28;;;;;;;5.80;3.78;;;;;;;;;;5026320;28;20198;-72
2020/12/22 05:01:54;;;;;;;5.47;3.60;;;;;;;;;;5012676;28;20202;-72
2020/12/22 05:04:20;;;;;;;5.78;4.38;;;;;;;;;;5040217;28;20240;-72
2020/12/22 05:06:46;;;;;;;5.20;4.25;;;;;;;;;;5017661;28;20205;-72
2020/12/22 05:09:11;;;;;;;5.40;4.35;;;;;;;;;;5021560;28;20192;-72
2020/12/22 05:11:37;;;;;;;5.10;3.65;;;;;;;;;;5018820;28;20189;-72
2020/12/22 05:14:05;;;;;;;4.68;3.70;;;;;;;;;;5020364;28;20209;-72
2020/12/22 05:16:34;;;;;;;7.07;3.50;;;;;;;;;;5016966;28;20592;-72
2020/12/22 05:19:01;;;;;;;6.80;3.22;;;;;;;;;;5022344;28;20229;-72
2020/12/22 05:21:34;;;;;;;4.28;3.03;;;;;;;;;;5017072;28;20178;-72
2020/12/22 05:24:00;;;;;;;2.85;2.63;;;;;;;;;;5024804;28;20194;-72
2020/12/22 05:26:26;;;;;;;2.67;2.28;;;;;;;;;;5018859;28;20297;-73
2020/12/22 05:28:51;;;;;;;3.72;2.38;;;;;;;;;;5022999;28;20209;-72
2020/12/22 05:31:17;;;;;;;2.28;2.08;;;;;;;;;;5028343;28;20178;-72
2020/12/22 05:33:46;;;;;;;4.55;1.70;;;;;;;;;;5015897;28;20202;-72
2020/12/22 05:36:12;;;;;;;2.33;1.95;;;;;;;;;;5023212;28;20238;-72
2020/12/22 05:38:38;;;;;;;3.22;1.90;;;;;;;;;;5016354;28;20194;-72
2020/12/22 05:41:05;;;;;;;3.30;2.20;;;;;;;;;;5028219;28;20181;-72
2020/12/22 05:43:38;;;;;;;3.50;1.88;;;;;;;;;;5014860;28;20194;-71
2020/12/22 05:46:04;;;;;;;3.40;2.00;;;;;;;;;;5020795;28;20186;-71
2020/12/22 05:48:29;;;;;;;2.55;2.35;;;;;;;;;;5030121;28;20198;-72
2020/12/22 05:50:54;;;;;;;6.22;2.35;;;;;;;;;;5024712;28;20387;-72
2020/12/22 05:53:24;;;;;;;5.43;2.60;;;;;;;;;;5016837;28;20645;-72
2020/12/22 05:55:49;;;;;;;4.63;2.53;;;;;;;;;;5023792;28;20206;-72
2020/12/22 05:58:15;;;;;;;4.35;3.20;;;;;;;;;;5006266;28;20317;-71
2020/12/22 06:00:42;;;;;;;4.85;3.22;;;;;;;;;;5017609;28;20654;-71
2020/12/22 06:03:13;;;;;;;6.30;3.42;;;;;;;;;;5021722;28;20564;-72
2020/12/22 06:05:41;;;;;;;3.85;2.80;;;;;;;;;;5021534;28;20183;-72
2020/12/22 06:08:08;;;;;;;4.63;2.60;;;;;;;;;;5019878;28;20237;-72
2020/12/22 06:10:35;;;;;;;5.90;2.40;;;;;;;;;;5014625;28;20205;-71
2020/12/22 06:13:01;;;;;;;4.18;2.53;;;;;;;;;;5022782;28;20194;-71
2020/12/22 06:15:27;;;;;;;2.92;2.10;;;;;;;;;;5018218;28;20229;-71
2020/12/22 06:17:52;;;;;;;4.22;1.88;;;;;;;;;;5019546;28;20699;-72
2020/12/22 06:20:21;;;;;;;5.10;2.13;;;;;;;;;;5019698;28;20198;-72
2020/12/22 06:22:48;;;;;;;5.78;1.83;;;;;;;;;;5019140;28;20251;-72
2020/12/22 06:25:18;;;;;;;4.10;2.10;;;;;;;;;;5007937;28;20186;-71
2020/12/22 06:27:44;;;;;;;4.97;2.15;;;;;;;;;;5020882;28;20542;-72
2020/12/22 06:30:09;;;;;;;3.80;1.80;;;;;;;;;;5012758;28;20185;-72
2020/12/22 06:32:35;;;;;;;7.85;1.70;;;;;;;;;;5017522;28;20597;-72
2020/12/22 06:35:27;;;;;;;2.63;1.83;;;;;;;;;;5009373;28;20221;-71
2020/12/22 06:37:53;;;;;;;6.78;1.90;;;;;;;;;;5022926;28;20186;-72
2020/12/22 06:40:19;;;;;;;4.32;1.65;;;;;;;;;;5012002;28;20194;-72
2020/12/22 06:42:46;;;;;;;6.32;1.95;;;;;;;;;;5025931;28;20661;-72
2020/12/22 06:45:35;;;;;;;4.60;1.80;;;;;;;;;;5014960;28;20552;-72
2020/12/22 06:48:00;;;;;;;10.77;2.10;;;;;;;;;;5021420;28;20190;-72
2020/12/22 06:50:36;;;;;;;8.95;2.03;;;;;;;;;;5020345;28;20758;-71
2020/12/22 06:53:02;;;;;;;5.35;1.60;;;;;;;;;;5014311;28;20252;-72
2020/12/22 06:55:50;;;;;;;6.07;1.67;;;;;;;;;;5023086;28;20242;-72
2020/12/22 06:58:34;;;;;;;6.97;1.75;;;;;;;;;;5014954;28;20209;-72
2020/12/22 07:01:27;;;;;;;5.43;1.75;;;;;;;;;;5030920;28;20806;-73
2020/12/22 07:03:54;;;;;;;8.70;1.75;;;;;;;;;;4321813;28;10000798;-72
2020/12/22 07:06:58;;;;;;;5.97;2.35;;;;;;;;;;5010977;28;20206;-71
2020/12/22 07:09:29;;;;;;;9.35;2.70;;;;;;;;;;5017501;28;20521;-71
2020/12/22 07:12:10;;;;;;;6.85;2.38;;;;;;;;;;5005896;28;20209;-72
2020/12/22 07:14:50;;;;;;;8.15;2.88;;;;;;;;;;5014421;28;20547;-72
2020/12/22 07:17:17;;;;;;;6.65;2.03;;;;;;;;;;5005153;28;20204;-71
2020/12/22 07:19:45;;;;;;;8.93;2.00;;;;;;;;;;5013588;28;20216;-72
2020/12/22 07:22:10;;;;;;;11.95;1.98;;;;;;;;;;5014144;28;20646;-72
2020/12/22 07:24:37;;;;;;;6.25;2.00;;;;;;;;;;5004623;28;20615;-72
2020/12/22 07:27:07;;;;;;;9.23;1.55;;;;;;;;;;5014420;28;20656;-71
2020/12/22 07:29:36;;;;;;;7.43;1.58;;;;;;;;;;5006015;28;20201;-71
2020/12/22 07:32:02;;;;;;;9.30;1.75;;;;;;;;;;5016272;28;20571;-71
2020/12/22 07:34:28;;;;;;;7.30;1.70;;;;;;;;;;5003836;28;20225;-71
2020/12/22 07:37:08;;;;;;;8.15;1.75;;;;;;;;;;5013521;28;20340;-71
2020/12/22 07:39:34;;;;;;;8.00;1.60;;;;;;;;;;5004324;28;20201;-72
2020/12/22 07:42:14;;;;;;;9.90;1.80;;;;;;;;;;5016402;28;20273;-71
2020/12/22 07:44:41;;;;;;;8.63;2.03;;;;;;;;;;5003714;28;20293;-72
2020/12/22 07:47:08;;;;;;;7.40;1.50;;;;;;;;;;5014419;28;20189;-71
2020/12/22 07:49:33;;;;;;;5.18;1.13;;;;;;;;;;5003888;28;20189;-72
2020/12/22 07:51:59;;;;;;;6.38;1.20;;;;;;;;;;5015083;28;20190;-72
2020/12/22 07:54:27;;;;;;;6.82;1.52;;;;;;;;;;5013878;28;20198;-72
2020/12/22 07:56:57;;;;;;;4.60;1.38;;;;;;;;;;5018387;28;20174;-72
2020/12/22 07:59:23;;;;;;;8.43;1.20;;;;;;;;;;5008277;28;20697;-71
2020/12/22 08:01:52;;;;;;;6.75;1.40;;;;;;;;;;5016344;28;20198;-71
2020/12/22 08:04:22;;;;;;;7.05;1.70;;;;;;;;;;5005151;28;20266;-71
2020/12/22 08:06:58;;;;;;;6.43;1.77;;;;;;;;;;5007635;28;20705;-71
2020/12/22 08:09:34;;;;;;;4.25;1.40;;;;;;;;;;5015199;28;20221;-72
2020/12/22 08:12:02;;;;;;;8.43;1.60;;;;;;;;;;5007319;28;20250;-71
2020/12/22 08:14:28;;;;;;;5.40;1.63;;;;;;;;;;5013774;28;20220;-72
2020/12/22 08:17:03;;;;;;;7.63;1.63;;;;;;;;;;5006813;28;20612;-72
2020/12/22 08:19:34;;;;;;;9.18;1.70;;;;;;;;;;5016886;28;20272;-71
2020/12/22 08:22:01;;;;;;;9.85;1.73;;;;;;;;;;5007276;28;20198;-71
2020/12/22 08:24:30;;;;;;;11.43;1.73;;;;;;;;;;5015013;28;20193;-71
2020/12/22 08:26:56;;;;;;;6.18;1.35;;;;;;;;;;5009785;28;20193;-72
2020/12/22 08:29:22;;;;;;;9.00;1.58;;;;;;;;;;5019729;28;20233;-72
2020/12/22 08:31:50;;;;;;;7.32;1.40;;;;;;;;;;5011183;28;20190;-71
2020/12/22 08:34:16;;;;;;;9.32;1.75;;;;;;;;;;5015052;28;20233;-72
2020/12/22 08:36:46;;;;;;;6.70;1.20;;;;;;;;;;5004517;28;20324;-72
2020/12/22 08:39:17;;;;;;;6.40;1.48;;;;;;;;;;5013133;28;20630;-71
2020/12/22 08:41:48;;;;;;;8.38;1.40;;;;;;;;;;5011669;28;20563;-72
2020/12/22 08:44:13;;;;;;;6.20;1.30;;;;;;;;;;5020692;28;20633;-71
2020/12/22 08:46:40;;;;;;;7.03;1.40;;;;;;;;;;5020131;28;20298;-72
2020/12/22 08:49:17;;;;;;;7.07;1.38;;;;;;;;;;5009781;28;20186;-71
2020/12/22 08:51:44;;;;;;;5.13;1.60;;;;;;;;;;5019435;28;20579;-71
2020/12/22 08:54:10;;;;;;;5.18;1.00;;;;;;;;;;5012814;28;20186;-71
2020/12/22 08:56:37;;;;;;;5.13;1.45;;;;;;;;;;5020287;28;20790;-71
2020/12/22 08:59:07;;;;;;;7.05;1.30;;;;;;;;;;5009517;28;20186;-72
2020/12/22 09:01:43;;;;;;;6.00;1.30;;;;;;;;;;5011946;28;20210;-71
2020/12/22 09:04:10;;;;;;;7.32;1.30;;;;;;;;;;5012168;28;20657;-71
2020/12/22 09:06:46;;;;;;;9.43;1.50;;;;;;;;;;5018681;28;20209;-71
2020/12/22 09:09:16;;;;;;;5.53;1.45;;;;;;;;;;5011405;28;20197;-72
2020/12/22 09:11:41;;;;;;;4.78;1.27;;;;;;;;;;5019102;28;20194;-71
2020/12/22 09:14:12;;;;;;;6.22;1.55;;;;;;;;;;5011444;28;20580;-72
2020/12/22 09:16:51;;;;;;;4.28;1.48;;;;;;;;;;5016379;28;20198;-71
2020/12/22 09:19:30;;;;;;;4.90;1.42;;;;;;;;;;5009730;28;20194;-72
2020/12/22 09:22:00;;;;;;;8.55;1.83;;;;;;;;;;5018363;28;20235;-71
2020/12/22 09:24:25;;;;;;;4.47;1.55;;;;;;;;;;5009254;28;20190;-71
2020/12/22 09:26:56;;;;;;;11.15;1.77;;;;;;;;;;5017971;28;20252;-71
2020/12/22 09:29:21;;;;;;;5.43;1.58;;;;;;;;;;5009336;28;20232;-71
2020/12/22 09:31:47;;;;;;;5.18;1.88;;;;;;;;;;5020177;28;20856;-71
2020/12/22 09:34:12;;;;;;;5.47;2.17;;;;;;;;;;5016520;28;21540;-71
2020/12/22 09:36:37;;;;;;;8.10;2.28;;;;;;;;;;5008701;28;20217;-71
2020/12/22 09:39:03;;;;;;;7.43;2.22;;;;;;;;;;5020175;28;20677;-72
2020/12/22 09:41:29;;;;;;;9.73;2.53;;;;;;;;;;5010025;28;20222;-72
2020/12/22 09:43:54;;;;;;;10.07;2.30;;;;;;;;;;5017160;28;20190;-72
2020/12/22 09:46:19;;;;;;;9.38;2.40;;;;;;;;;;5010121;28;20630;-72
2020/12/22 09:48:45;;;;;;;9.82;2.78;;;;;;;;;;5019466;28;20666;-72
2020/12/22 09:51:14;;;;;;;8.73;3.05;;;;;;;;;;5009376;28;20190;-72
2020/12/22 09:53:40;;;;;;;9.23;2.85;;;;;;;;;;5018010;28;20228;-71
2020/12/22 09:56:05;;;;;;;8.32;2.75;;;;;;;;;;5009765;28;20210;-72
2020/12/22 09:58:30;;;;;;;7.43;2.70;;;;;;;;;;5018984;28;20257;-71
2020/12/22 10:00:55;;;;;;;8.60;3.22;;;;;;;;;;5008876;28;20626;-71
2020/12/22 10:03:21;;;;;;;8.10;2.70;;;;;;;;;;5017682;28;20197;-72
2020/12/22 10:05:48;;;;;;;5.75;2.30;;;;;;;;;;5017409;28;20692;-71
2020/12/22 10:08:13;;;;;;;6.40;2.67;;;;;;;;;;5008771;28;20568;-71
2020/12/22 10:10:39;;;;;;;7.28;2.92;;;;;;;;;;5017150;28;20197;-72
2020/12/22 10:13:04;;;;;;;6.38;2.53;;;;;;;;;;5009600;28;20190;-71
2020/12/22 10:15:29;;;;;;;12.02;3.10;;;;;;;;;;5016402;28;20257;-71
2020/12/22 10:17:55;;;;;;;8.60;2.60;;;;;;;;;;5013844;28;20606;-71
2020/12/22 10:20:20;;;;;;;9.65;3.20;;;;;;;;;;5019821;28;20190;-71
2020/12/22 10:22:45;;;;;;;8.38;2.80;;;;;;;;;;5009087;28;20200;-71
2020/12/22 10:25:11;;;;;;;6.05;2.63;;;;;;;;;;5018204;28;20182;-71
2020/12/22 10:27:36;;;;;;;9.82;2.95;;;;;;;;;;5009283;28;21803;-71
2020/12/22 10:30:03;;;;;;;9.55;2.90;;;;;;;;;;5019211;28;20591;-71
2020/12/22 10:32:28;;;;;;;10.45;3.00;;;;;;;;;;5018457;28;20649;-71
2020/12/22 10:34:53;;;;;;;7.38;3.05;;;;;;;;;;5006433;28;20233;-71
2020/12/22 10:37:19;;;;;;;10.82;2.88;;;;;;;;;;5019564;28;20194;-71
2020/12/22 10:39:48;;;;;;;7.88;2.78;;;;;;;;;;5007451;28;20193;-71
2020/12/22 10:42:13;;;;;;;7.15;2.75;;;;;;;;;;5021903;28;20197;-71
2020/12/22 10:44:39;;;;;;;11.80;3.70;;;;;;;;;;5009249;28;20186;-71
2020/12/22 10:47:04;;;;;;;10.60;3.47;;;;;;;;;;5013537;28;20652;-71
2020/12/22 10:49:29;;;;;;;6.10;2.60;;;;;;;;;;5012792;28;20202;-72
2020/12/22 10:51:55;;;;;;;7.85;3.88;;;;;;;;;;5016432;28;20579;-72
2020/12/22 10:54:20;;;;;;;8.95;3.72;;;;;;;;;;5013205;28;20269;-72
2020/12/22 10:56:45;;;;;;;8.60;4.50;;;;;;;;;;5013092;28;20232;-72
2020/12/22 10:59:11;;;;;;;14.52;5.38;;;;;;;;;;5010864;28;20637;-72
2020/12/22 11:01:39;;;;;;;11.93;4.80;;;;;;;;;;5016249;28;20190;-72
2020/12/22 11:04:04;;;;;;;14.80;4.60;;;;;;;;;;5020668;28;20186;-72
2020/12/22 11:06:54;;;;;;;14.18;4.63;;;;;;;;;;5010134;28;20612;-72
2020/12/22 11:09:19;;;;;;;12.10;4.82;;;;;;;;;;5021525;28;20178;-71
2020/12/22 11:11:46;;;;;;;15.07;4.65;;;;;;;;;;5010739;28;20185;-71
2020/12/22 11:14:13;;;;;;;15.60;4.80;;;;;;;;;;5011244;28;20178;-71
2020/12/22 11:16:38;;;;;;;14.80;4.70;;;;;;;;;;5011052;28;20221;-72
2020/12/22 11:19:03;;;;;;;14.02;5.75;;;;;;;;;;5020469;28;20187;-71
2020/12/22 11:21:29;;;;;;;12.52;4.70;;;;;;;;;;5008624;28;20198;-71
2020/12/22 11:23:54;;;;;;;14.00;5.90;;;;;;;;;;5019032;28;20186;-71
2020/12/22 11:26:21;;;;;;;14.98;6.53;;;;;;;;;;4677065;28;10000390;-71
2020/12/22 11:28:47;;;;;;;12.23;6.57;;;;;;;;;;5017075;28;20660;-71
2020/12/22 11:31:13;;;;;;;15.73;6.32;;;;;;;;;;5007811;28;20536;-71
2020/12/22 11:33:42;;;;;;;12.27;6.22;;;;;;;;;;5017139;28;20188;-72
2020/12/22 11:36:15;;;;;;;15.93;7.50;;;;;;;;;;5005113;28;20222;-72
2020/12/22 11:38:41;;;;;;;14.13;6.80;;;;;;;;;;5014311;28;20185;-71
2020/12/22 11:41:06;;;;;;;17.13;6.82;;;;;;;;;;5010231;28;20268;-72
2020/12/22 11:43:32;;;;;;;15.07;6.75;;;;;;;;;;5009992;28;20466;-71
2020/12/22 11:45:58;;;;;;;13.27;6.30;;;;;;;;;;5014241;28;20190;-72
2020/12/22 11:48:24;;;;;;;11.02;6.53;;;;;;;;;;5009287;28;20272;-71
2020/12/22 11:50:54;;;;;;;16.50;6.28;;;;;;;;;;5016914;28;20698;-72
2020/12/22 11:53:20;;;;;;;12.13;5.53;;;;;;;;;;5009760;28;20194;-71
2020/12/22 11:55:46;;;;;;;13.27;6.55;;;;;;;;;;5013598;28;20603;-72
2020/12/22 11:58:11;;;;;;;13.52;6.45;;;;;;;;;;5007094;28;20186;-71
2020/12/22 12:00:37;;;;;;;10.93;5.50;;;;;;;;;;5017879;28;20672;-72
2020/12/22 12:03:03;;;;;;;12.90;5.45;;;;;;;;;;5011881;28;20722;-72
2020/12/22 12:05:28;;;;;;;9.85;6.53;;;;;;;;;;5026614;28;20228;-71
2020/12/22 12:07:53;;;;;;;9.77;5.75;;;;;;;;;;5013285;28;21086;-72
2020/12/22 12:10:19;;;;;;;18.80;7.10;;;;;;;;;;5019654;28;20194;-72
2020/12/22 12:12:44;;;;;;;17.88;7.32;;;;;;;;;;5020880;28;21342;-71
2020/12/22 12:15:09;;;;;;;20.17;8.00;;;;;;;;;;5009688;28;20209;-72
2020/12/22 12:17:35;;;;;;;19.48;8.20;;;;;;;;;;5019876;28;21385;-73
2020/12/22 12:20:00;;;;;;;16.38;7.53;;;;;;;;;;5011239;28;20198;-72
2020/12/22 12:22:25;;;;;;;13.77;6.80;;;;;;;;;;5019370;28;20191;-72
2020/12/22 12:24:50;;;;;;;15.82;7.35;;;;;;;;;;5010144;28;21431;-72
2020/12/22 12:27:16;;;;;;;16.10;6.30;;;;;;;;;;5019414;28;20202;-72
2020/12/22 12:29:41;;;;;;;9.88;5.45;;;;;;;;;;5010865;28;20243;-72
2020/12/22 12:32:06;;;;;;;14.35;4.93;;;;;;;;;;5018344;28;20179;-72
2020/12/22 12:34:33;;;;;;;10.93;4.63;;;;;;;;;;5012671;28;20226;-72
2020/12/22 12:36:58;;;;;;;11.05;3.88;;;;;;;;;;5000379;28;20197;-72
2020/12/22 12:39:23;;;;;;;7.60;2.90;;;;;;;;;;4996495;28;20198;-72
2020/12/22 12:41:49;;;;;;;8.30;2.97;;;;;;;;;;5013488;28;20193;-72
2020/12/22 12:44:16;;;;;;;10.30;2.78;;;;;;;;;;5008193;28;20190;-73
2020/12/22 12:46:41;;;;;;;6.20;2.95;;;;;;;;;;5005308;28;20481;-72
2020/12/22 12:49:07;;;;;;;11.30;3.22;;;;;;;;;;5010658;28;20197;-73
2020/12/22 12:51:34;;;;;;;4.20;2.17;;;;;;;;;;5005408;28;20602;-72
2020/12/22 12:54:00;;;;;;;9.82;2.58;;;;;;;;;;5011453;28;21026;-73
2020/12/22 12:56:25;;;;;;;7.82;2.67;;;;;;;;;;5005820;28;20213;-73
2020/12/22 12:58:50;;;;;;;11.40;2.40;;;;;;;;;;5023188;28;20676;-72
2020/12/22 13:01:16;;;;;;;9.00;2.83;;;;;;;;;;5007667;28;20235;-72
2020/12/22 13:03:42;;;;;;;11.60;4.25;;;;;;;;;;5007578;28;21370;-72
2020/12/22 13:06:08;;;;;;;8.82;3.20;;;;;;;;;;5007943;28;20308;-73
2020/12/22 13:08:34;;;;;;;6.68;2.95;;;;;;;;;;5008964;28;20198;-72
2020/12/22 13:11:00;;;;;;;8.85;3.22;;;;;;;;;;5008754;28;20180;-73
2020/12/22 13:13:25;;;;;;;5.15;3.03;;;;;;;;;;5007023;28;20316;-72
2020/12/22 13:15:51;;;;;;;10.10;3.43;;;;;;;;;;5013756;28;20202;-71
2020/12/22 13:18:16;;;;;;;7.18;3.20;;;;;;;;;;5002501;28;20210;-72
2020/12/22 13:20:41;;;;;;;6.80;2.67;;;;;;;;;;5014526;28;20213;-71
2020/12/22 13:23:06;;;;;;;8.65;2.63;;;;;;;;;;5002003;28;20669;-72
2020/12/22 13:25:32;;;;;;;7.03;2.28;;;;;;;;;;5010140;28;20190;-71
2020/12/22 13:27:57;;;;;;;4.47;2.53;;;;;;;;;;5003294;28;21263;-71
2020/12/22 13:30:22;;;;;;;5.10;1.75;;;;;;;;;;5013628;28;20197;-71
2020/12/22 13:32:48;;;;;;;5.18;1.95;;;;;;;;;;5003324;28;20202;-71
2020/12/22 13:35:14;;;;;;;6.32;1.67;;;;;;;;;;5012419;28;20658;-71
2020/12/22 13:37:39;;;;;;;3.88;1.70;;;;;;;;;;5003661;28;20186;-71
2020/12/22 13:40:04;;;;;;;5.72;1.65;;;;;;;;;;5014929;28;20182;-72
2020/12/22 13:42:30;;;;;;;4.43;2.05;;;;;;;;;;5019763;28;20186;-71
2020/12/22 13:44:55;;;;;;;3.65;2.00;;;;;;;;;;5014895;28;21902;-71
2020/12/22 13:47:20;;;;;;;5.90;2.20;;;;;;;;;;5020644;28;20609;-72
2020/12/22 13:49:46;;;;;;;6.15;1.88;;;;;;;;;;5013270;28;20198;-71
2020/12/22 13:52:11;;;;;;;6.20;1.73;;;;;;;;;;5019872;28;20186;-72
2020/12/22 13:54:37;;;;;;;5.40;2.17;;;;;;;;;;5006963;28;20187;-72
2020/12/22 13:57:03;;;;;;;5.00;1.80;;;;;;;;;;5018868;28;20202;-73
2020/12/22 13:59:28;;;;;;;8.67;2.27;;;;;;;;;;5016175;28;20198;-72
2020/12/22 14:01:53;;;;;;;7.37;1.93;;;;;;;;;;5013982;28;20281;-72
2020/12/22 14:04:19;;;;;;;7.00;2.07;;;;;;;;;;5018173;28;20196;-72
2020/12/22 14:06:44;;;;;;;5.43;2.07;;;;;;;;;;5012235;28;20300;-72
2020/12/22 14:09:09;;;;;;;6.60;2.57;;;;;;;;;;5012923;28;20186;-72
2020/12/22 14:11:35;;;;;;;6.13;2.67;;;;;;;;;;5014555;28;20190;-72
2020/12/22 14:14:00;;;;;;;8.57;3.47;;;;;;;;;;5008799;28;20198;-72
2020/12/22 14:16:25;;;;;;;6.87;2.77;;;;;;;;;;5009220;28;20218;-72
2020/12/22 14:18:51;;;;;;;7.93;3.23;;;;;;;;;;5018617;28;20186;-72
2020/12/22 14:21:18;;;;;;;7.63;3.50;;;;;;;;;;5012515;28;20186;-72
2020/12/22 14:23:43;;;;;;;5.90;3.47;;;;;;;;;;5020768;28;20198;-71
2020/12/22 14:26:09;;;;;;;10.53;3.33;;;;;;;;;;5013772;28;20194;-71
2020/12/22 14:28:35;;;;;;;6.13;3.60;;;;;;;;;;5021284;28;20189;-71
2020/12/22 14:31:01;;;;;;;8.63;4.63;;;;;;;;;;5014247;28;20205;-72
2020/12/22 14:33:27;;;;;;;12.57;4.20;;;;;;;;;;5023584;28;20275;-72
2020/12/22 14:35:53;;;;;;;12.30;4.07;;;;;;;;;;5013158;28;20234;-72